createdAt,value
2023-06-08T00:00:30.342Z,5.00
2023-06-08T00:02:58.170Z,5.40
2023-06-08T00:05:25.434Z,5.50
2023-06-08T00:07:52.225Z,5.93
2023-06-08T00:10:19.358Z,5.43
2023-06-08T00:12:47.004Z,6.00
2023-06-08T00:15:14.760Z,5.53
2023-06-08T00:17:41.914Z,5.40
2023-06-08T00:20:10.416Z,5.53
2023-06-08T00:22:37.992Z,5.87
2023-06-08T00:25:06.029Z,5.70
2023-06-08T00:27:32.880Z,6.10
2023-06-08T00:29:59.726Z,5.90
2023-06-08T00:32:26.617Z,5.53
2023-06-08T00:34:53.433Z,5.87
2023-06-08T00:37:20.357Z,6.03
2023-06-08T00:39:47.121Z,5.87
2023-06-08T00:42:13.939Z,5.90
2023-06-08T00:44:40.785Z,5.80
2023-06-08T00:47:09.377Z,6.07
2023-06-08T00:49:36.362Z,5.77
2023-06-08T00:52:03.500Z,5.97
2023-06-08T00:54:34.591Z,6.07
2023-06-08T00:57:04.912Z,5.63
2023-06-08T00:59:33.944Z,5.33
2023-06-08T01:02:01.032Z,6.03
2023-06-08T01:04:29.994Z,5.80
2023-06-08T01:07:42.292Z,5.40
2023-06-08T01:10:26.224Z,5.17
2023-06-08T01:13:26.354Z,5.43
2023-06-08T01:16:03.260Z,5.53
2023-06-08T01:18:39.112Z,5.67
2023-06-08T01:21:25.835Z,5.63
2023-06-08T01:24:21.052Z,6.13
2023-06-08T01:26:51.716Z,5.67
2023-06-08T01:29:26.562Z,5.87
2023-06-08T01:31:53.567Z,6.00
2023-06-08T01:34:21.654Z,5.80
2023-06-08T01:37:27.832Z,5.20
2023-06-08T01:40:10.959Z,5.70
2023-06-08T01:42:38.372Z,5.70
2023-06-08T01:45:14.384Z,5.87
2023-06-08T01:47:52.590Z,6.20
2023-06-08T01:50:21.983Z,5.60
2023-06-08T01:52:48.974Z,5.90
2023-06-08T01:55:18.407Z,5.70
2023-06-08T01:57:45.272Z,6.37
2023-06-08T02:00:19.393Z,5.47
2023-06-08T02:02:46.589Z,6.17
2023-06-08T02:05:16.008Z,5.63
2023-06-08T02:07:43.723Z,5.67
2023-06-08T02:10:12.975Z,5.77
2023-06-08T02:12:41.249Z,6.33
2023-06-08T02:15:08.822Z,6.87
2023-06-08T02:17:37.098Z,6.17
2023-06-08T02:20:11.114Z,6.23
2023-06-08T02:22:39.317Z,6.30
2023-06-08T02:25:10.552Z,6.20
2023-06-08T02:27:37.763Z,5.53
2023-06-08T02:30:08.579Z,5.70
2023-06-08T02:32:35.852Z,6.17
2023-06-08T02:35:05.067Z,6.40
2023-06-08T02:37:34.103Z,6.10
2023-06-08T02:40:09.240Z,6.20
2023-06-08T02:42:36.606Z,6.17
2023-06-08T02:45:03.841Z,6.53
2023-06-08T02:47:30.656Z,5.80
2023-06-08T02:49:57.563Z,5.83
2023-06-08T02:52:24.408Z,5.83
2023-06-08T02:54:51.232Z,6.40
2023-06-08T02:57:18.063Z,6.10
2023-06-08T02:59:44.953Z,5.63
2023-06-08T03:02:12.385Z,5.77
2023-06-08T03:04:39.533Z,6.47
2023-06-08T03:07:10.432Z,6.23
2023-06-08T03:09:37.380Z,6.30
2023-06-08T03:12:06.436Z,6.10
2023-06-08T03:14:33.861Z,6.53
2023-06-08T03:17:04.418Z,6.23
2023-06-08T03:19:31.668Z,5.70
2023-06-08T03:22:05.735Z,6.67
2023-06-08T03:24:33.920Z,6.23
2023-06-08T03:27:02.290Z,6.20
2023-06-08T03:29:30.698Z,6.17
2023-06-08T03:31:59.167Z,5.90
2023-06-08T03:34:27.307Z,6.37
2023-06-08T03:36:57.249Z,7.27
2023-06-08T03:39:24.299Z,6.23
2023-06-08T03:41:51.479Z,6.57
2023-06-08T03:44:19.258Z,6.00
2023-06-08T03:46:47.922Z,6.00
2023-06-08T03:49:15.552Z,5.80
2023-06-08T03:51:42.307Z,5.73
2023-06-08T03:54:09.216Z,5.87
2023-06-08T03:56:36.062Z,5.77
2023-06-08T03:59:03.059Z,5.40
2023-06-08T04:01:31.317Z,5.37
2023-06-08T04:03:58.325Z,6.13
2023-06-08T04:06:25.709Z,5.73
2023-06-08T04:08:52.833Z,5.47
2023-06-08T04:11:19.654Z,6.03
2023-06-08T04:13:46.701Z,6.00
2023-06-08T04:16:14.704Z,5.47
2023-06-08T04:18:41.713Z,5.37
2023-06-08T04:21:09.704Z,6.00
2023-06-08T04:23:37.598Z,5.33
2023-06-08T04:26:07.381Z,5.43
2023-06-08T04:28:35.963Z,5.10
2023-06-08T04:31:05.778Z,5.50
2023-06-08T04:33:32.613Z,5.70
2023-06-08T04:35:59.491Z,5.23
2023-06-08T04:38:28.204Z,4.83
2023-06-08T04:40:56.706Z,5.00
2023-06-08T04:43:26.355Z,5.00
2023-06-08T04:46:00.527Z,5.47
2023-06-08T04:48:28.602Z,5.97
2023-06-08T04:51:01.081Z,5.73
2023-06-08T04:53:34.520Z,5.37
2023-06-08T04:56:03.696Z,5.47
2023-06-08T04:58:32.158Z,5.40
2023-06-08T05:00:59.685Z,5.40
2023-06-08T05:03:27.697Z,5.83
2023-06-08T05:05:55.986Z,5.70
2023-06-08T05:08:22.871Z,5.63
2023-06-08T05:10:49.732Z,5.33
2023-06-08T05:13:16.542Z,5.80
2023-06-08T05:15:43.326Z,5.50
2023-06-08T05:18:10.505Z,5.77
2023-06-08T05:20:37.600Z,5.23
2023-06-08T05:23:04.572Z,5.53
2023-06-08T05:25:31.457Z,4.80
2023-06-08T05:27:58.429Z,5.17
2023-06-08T05:30:26.348Z,5.30
2023-06-08T05:32:53.409Z,5.50
2023-06-08T05:35:20.852Z,5.23
2023-06-08T05:37:47.656Z,5.50
2023-06-08T05:40:15.686Z,5.33
2023-06-08T05:42:42.514Z,5.50
2023-06-08T05:45:10.421Z,4.70
2023-06-08T05:47:37.267Z,5.33
2023-06-08T05:50:04.791Z,4.80
2023-06-08T05:52:32.336Z,5.07
2023-06-08T05:55:01.273Z,4.90
2023-06-08T05:57:28.588Z,5.03
2023-06-08T05:59:55.532Z,4.80
2023-06-08T06:02:22.569Z,4.70
2023-06-08T06:04:49.658Z,4.00
2023-06-08T06:07:16.695Z,4.30
2023-06-08T06:09:43.579Z,4.57
2023-06-08T06:12:10.843Z,4.10
2023-06-08T06:14:41.034Z,4.10
2023-06-08T06:17:09.830Z,4.00
2023-06-08T06:19:38.220Z,3.50
2023-06-08T06:22:12.256Z,3.47
2023-06-08T06:24:39.190Z,3.87
2023-06-08T06:27:07.230Z,3.57
2023-06-08T06:29:34.882Z,3.10
2023-06-08T06:32:01.846Z,3.60
2023-06-08T06:34:28.658Z,3.73
2023-06-08T06:36:56.368Z,3.60
2023-06-08T06:39:23.531Z,3.60
2023-06-08T06:41:50.644Z,3.67
2023-06-08T06:44:17.477Z,3.30
2023-06-08T06:46:44.558Z,3.53
2023-06-08T06:49:11.467Z,3.93
2023-06-08T06:51:40.441Z,3.70
2023-06-08T06:54:07.532Z,3.50
2023-06-08T06:56:34.336Z,3.40
2023-06-08T06:59:01.297Z,3.90
2023-06-08T07:01:28.393Z,4.57
2023-06-08T07:03:55.428Z,5.00
2023-06-08T07:06:25.480Z,4.47
2023-06-08T07:08:52.577Z,4.53
2023-06-08T07:11:19.436Z,4.60
2023-06-08T07:13:46.231Z,4.30
2023-06-08T07:16:13.106Z,4.60
2023-06-08T07:18:40.605Z,5.03
2023-06-08T07:21:07.731Z,4.80
2023-06-08T07:24:28.584Z,4.60
2023-06-08T07:26:29.533Z,4.20
2023-06-08T07:29:02.225Z,3.90
2023-06-08T07:31:29.613Z,4.70
2023-06-08T07:33:58.226Z,4.67
2023-06-08T07:36:25.641Z,4.67
2023-06-08T07:38:52.554Z,3.50
2023-06-08T07:41:19.876Z,3.97
2023-06-08T07:43:47.423Z,4.63
2023-06-08T07:46:14.795Z,4.50
2023-06-08T07:48:41.597Z,3.83
2023-06-08T07:51:08.426Z,4.17
2023-06-08T07:53:39.598Z,4.10
2023-06-08T07:56:07.614Z,4.23
2023-06-08T07:58:34.745Z,4.00
2023-06-08T08:01:02.549Z,3.87
2023-06-08T08:03:30.255Z,4.60
2023-06-08T08:05:57.626Z,4.40
2023-06-08T08:08:24.538Z,3.97
2023-06-08T08:10:51.385Z,3.67
2023-06-08T08:13:18.724Z,3.40
2023-06-08T08:15:46.567Z,3.83
2023-06-08T08:18:14.243Z,4.00
2023-06-08T08:20:41.201Z,3.47
2023-06-08T08:23:08.381Z,3.73
2023-06-08T08:25:36.221Z,3.83
2023-06-08T08:28:03.489Z,3.90
2023-06-08T08:30:31.778Z,3.80
2023-06-08T08:32:58.663Z,3.60
2023-06-08T08:35:29.992Z,3.73
2023-06-08T08:37:57.564Z,3.90
2023-06-08T08:40:25.012Z,3.70
2023-06-08T08:43:17.338Z,3.50
2023-06-08T08:45:46.677Z,4.00
2023-06-08T08:48:16.771Z,3.80
2023-06-08T08:50:50.291Z,3.67
2023-06-08T08:53:17.600Z,3.60
2023-06-08T08:55:49.728Z,3.70
2023-06-08T08:58:19.461Z,3.50
2023-06-08T09:00:49.869Z,3.40
2023-06-08T09:03:17.127Z,3.47
2023-06-08T09:05:44.768Z,3.17
2023-06-08T09:08:12.938Z,3.93
2023-06-08T09:10:39.872Z,3.60
2023-06-08T09:13:06.653Z,3.87
2023-06-08T09:15:37.816Z,3.43
2023-06-08T09:18:24.905Z,3.90
2023-06-08T09:20:52.727Z,3.90
2023-06-08T09:23:25.377Z,3.40
2023-06-08T09:25:53.414Z,3.47
2023-06-08T09:28:29.586Z,3.90
2023-06-08T09:30:58.578Z,3.47
2023-06-08T09:33:27.085Z,3.17
2023-06-08T09:36:00.154Z,3.23
2023-06-08T09:38:29.318Z,3.27
2023-06-08T09:41:23.845Z,3.53
2023-06-08T09:43:52.049Z,4.00
2023-06-08T09:46:46.795Z,3.90
2023-06-08T09:49:19.493Z,4.47
2023-06-08T09:51:52.367Z,4.10
2023-06-08T09:54:22.449Z,3.87
2023-06-08T09:56:55.797Z,4.33
2023-06-08T09:59:38.102Z,4.00
2023-06-08T10:02:34.054Z,4.10
2023-06-08T10:05:11.613Z,3.63
2023-06-08T10:07:43.223Z,3.13
2023-06-08T10:10:17.145Z,3.63
2023-06-08T10:12:44.962Z,3.17
2023-06-08T10:15:12.536Z,3.67
2023-06-08T10:17:40.989Z,3.23
2023-06-08T10:20:08.874Z,4.00
2023-06-08T10:22:38.827Z,3.80
2023-06-08T10:25:09.865Z,3.50
2023-06-08T10:27:39.964Z,3.70
2023-06-08T10:30:07.620Z,3.50
2023-06-08T10:32:38.053Z,3.77
2023-06-08T10:35:08.254Z,3.00
2023-06-08T10:37:38.195Z,2.90
2023-06-08T10:40:11.530Z,2.80
2023-06-08T10:42:51.360Z,3.03
2023-06-08T10:45:34.525Z,3.20
2023-06-08T10:48:09.082Z,2.67
2023-06-08T10:50:40.894Z,3.20
2023-06-08T10:53:07.704Z,3.10
2023-06-08T10:55:35.442Z,3.07
2023-06-08T10:58:26.932Z,3.00
2023-06-08T11:01:08.033Z,2.63
2023-06-08T11:03:48.143Z,2.60
2023-06-08T11:06:16.156Z,3.07
2023-06-08T11:08:43.540Z,3.20
2023-06-08T11:11:12.486Z,2.87
2023-06-08T11:13:39.568Z,3.53
2023-06-08T11:16:06.673Z,3.50
2023-06-08T11:18:35.361Z,3.30
2023-06-08T11:21:03.276Z,2.70
2023-06-08T11:23:35.270Z,3.10
2023-06-08T11:26:02.340Z,2.60
2023-06-08T11:28:29.292Z,2.70
2023-06-08T11:30:56.201Z,2.60
2023-06-08T11:33:23.035Z,2.70
2023-06-08T11:35:54.259Z,2.80
2023-06-08T11:38:24.953Z,2.80
2023-06-08T11:40:52.205Z,2.80
2023-06-08T11:43:22.494Z,2.70
2023-06-08T11:45:49.305Z,2.90
2023-06-08T11:48:17.536Z,3.00
2023-06-08T11:50:49.439Z,2.70
2023-06-08T11:53:24.947Z,2.83
2023-06-08T11:55:54.575Z,2.70
2023-06-08T11:58:27.746Z,2.77
2023-06-08T12:01:10.326Z,2.60
2023-06-08T12:03:45.855Z,2.80
2023-06-08T12:06:14.299Z,3.17
2023-06-08T12:08:42.178Z,3.00
2023-06-08T12:11:11.642Z,2.70
2023-06-08T12:13:43.659Z,2.80
2023-06-08T12:16:13.104Z,2.83
2023-06-08T12:18:46.393Z,2.60
2023-06-08T12:21:17.410Z,2.60
2023-06-08T12:23:45.680Z,2.80
2023-06-08T12:26:14.601Z,2.60
2023-06-08T12:28:41.664Z,2.70
2023-06-08T12:31:08.786Z,2.67
2023-06-08T12:33:35.750Z,2.93
2023-06-08T12:36:03.008Z,2.77
2023-06-08T12:38:30.949Z,2.57
2023-06-08T12:40:58.082Z,3.00
2023-06-08T12:43:26.113Z,2.93
2023-06-08T12:45:53.627Z,2.60
2023-06-08T12:48:21.576Z,3.20
2023-06-08T12:50:48.423Z,2.97
2023-06-08T12:53:15.191Z,3.40
2023-06-08T12:55:43.784Z,3.33
2023-06-08T12:58:11.616Z,3.27
2023-06-08T13:00:38.460Z,3.40
2023-06-08T13:03:08.184Z,3.27
2023-06-08T13:05:35.709Z,4.20
2023-06-08T13:08:08.177Z,3.00
2023-06-08T13:10:40.348Z,3.50
2023-06-08T13:13:08.289Z,4.30
2023-06-08T13:15:36.540Z,4.17
2023-06-08T13:18:07.614Z,4.17
2023-06-08T13:20:35.801Z,4.17
2023-06-08T13:23:02.691Z,4.30
2023-06-08T13:25:29.519Z,4.33
2023-06-08T13:27:57.484Z,4.33
2023-06-08T13:30:25.639Z,5.00
2023-06-08T13:32:54.548Z,5.23
2023-06-08T13:35:21.503Z,4.80
2023-06-08T13:37:48.695Z,5.00
2023-06-08T13:40:15.802Z,5.30
2023-06-08T13:42:42.588Z,5.40
2023-06-08T13:45:13.407Z,5.60
2023-06-08T13:47:42.036Z,6.20
2023-06-08T13:50:10.525Z,6.13
2023-06-08T13:52:38.281Z,5.30
2023-06-08T13:55:06.605Z,5.57
2023-06-08T13:57:33.495Z,5.77
2023-06-08T14:00:03.433Z,6.47
2023-06-08T14:02:31.992Z,7.07
2023-06-08T14:05:00.530Z,7.03
2023-06-08T14:07:28.162Z,6.73
2023-06-08T14:09:54.988Z,7.07
2023-06-08T14:12:21.792Z,6.83
2023-06-08T14:14:50.832Z,6.53
2023-06-08T14:17:17.986Z,6.50
2023-06-08T14:19:47.280Z,6.50
2023-06-08T14:22:16.223Z,7.03
2023-06-08T14:24:43.443Z,5.93
2023-06-08T14:27:11.440Z,6.10
2023-06-08T14:29:38.537Z,6.40
2023-06-08T14:32:06.343Z,7.43
2023-06-08T14:34:34.981Z,6.57
2023-06-08T14:37:01.792Z,6.57
2023-06-08T14:39:28.611Z,6.50
2023-06-08T14:41:55.539Z,6.20
2023-06-08T14:44:22.490Z,6.23
2023-06-08T14:46:49.334Z,6.23
2023-06-08T14:49:17.070Z,5.93
2023-06-08T14:51:44.074Z,6.43
2023-06-08T14:54:11.073Z,6.50
2023-06-08T14:56:37.870Z,6.60
2023-06-08T14:59:04.687Z,6.50
2023-06-08T15:01:32.833Z,6.43
2023-06-08T15:04:01.713Z,7.20
2023-06-08T15:06:28.494Z,6.63
2023-06-08T15:08:55.298Z,6.87
2023-06-08T15:11:23.069Z,7.43
2023-06-08T15:13:49.871Z,7.83
2023-06-08T15:16:16.772Z,7.40
2023-06-08T15:18:44.629Z,7.03
2023-06-08T15:21:12.462Z,7.30
2023-06-08T15:23:40.189Z,8.30
2023-06-08T15:26:06.973Z,7.43
2023-06-08T15:28:34.187Z,7.73
2023-06-08T15:31:01.053Z,7.03
2023-06-08T15:33:31.001Z,7.97
2023-06-08T15:35:58.325Z,7.27
2023-06-08T15:38:25.413Z,7.93
2023-06-08T15:41:03.726Z,7.53
2023-06-08T15:43:31.066Z,7.90
2023-06-08T15:45:58.413Z,7.40
2023-06-08T15:48:25.219Z,7.40
2023-06-08T15:50:52.022Z,7.60
2023-06-08T15:53:18.841Z,7.43
2023-06-08T15:55:45.687Z,7.03
2023-06-08T15:58:12.946Z,7.60
2023-06-08T16:00:40.883Z,7.20
2023-06-08T16:03:07.712Z,6.43
2023-06-08T16:05:34.615Z,7.30
2023-06-08T16:08:01.473Z,7.30
2023-06-08T16:10:28.278Z,7.30
2023-06-08T16:12:55.040Z,7.30
2023-06-08T16:15:24.794Z,7.00
2023-06-08T16:17:51.682Z,6.77
2023-06-08T16:20:18.584Z,7.80
2023-06-08T16:22:45.490Z,6.50
2023-06-08T16:25:12.380Z,6.53
2023-06-08T16:27:39.242Z,7.00
2023-06-08T16:30:07.834Z,6.53
2023-06-08T16:32:35.348Z,6.53
2023-06-08T16:35:02.240Z,6.10
2023-06-08T16:37:29.682Z,6.17
2023-06-08T16:39:56.461Z,5.57
2023-06-08T16:42:23.456Z,5.80
2023-06-08T16:44:51.708Z,6.10
2023-06-08T16:47:18.540Z,5.87
2023-06-08T16:49:45.330Z,5.93
2023-06-08T16:52:12.718Z,6.47
2023-06-08T16:54:39.492Z,5.97
2023-06-08T16:57:07.041Z,6.90
2023-06-08T16:59:34.127Z,6.30
2023-06-08T17:02:02.806Z,6.63
2023-06-08T17:04:29.958Z,6.40
2023-06-08T17:06:57.381Z,6.10
2023-06-08T17:09:25.464Z,6.00
2023-06-08T17:11:52.297Z,6.00
2023-06-08T17:14:19.213Z,5.90
2023-06-08T17:16:47.414Z,5.60
2023-06-08T17:19:14.232Z,5.80
2023-06-08T17:21:41.277Z,6.00
2023-06-08T17:24:08.466Z,6.10
2023-06-08T17:26:37.348Z,6.17
2023-06-08T17:29:04.345Z,5.90
2023-06-08T17:31:31.211Z,5.63
2023-06-08T17:33:58.094Z,5.97
2023-06-08T17:36:24.880Z,5.63
2023-06-08T17:38:51.634Z,6.40
2023-06-08T17:41:32.390Z,6.17
2023-06-08T17:44:01.670Z,5.90
2023-06-08T17:46:28.557Z,6.30
2023-06-08T17:48:55.338Z,6.30
2023-06-08T17:51:22.454Z,6.27
2023-06-08T17:53:50.153Z,5.80
2023-06-08T17:56:17.108Z,6.40
2023-06-08T17:58:43.989Z,5.90
2023-06-08T18:01:11.011Z,6.57
2023-06-08T18:03:39.423Z,6.37
2023-06-08T18:06:20.260Z,6.30
2023-06-08T18:08:52.132Z,6.77
2023-06-08T18:11:20.299Z,7.13
2023-06-08T18:13:47.111Z,6.53
2023-06-08T18:16:13.954Z,6.60
2023-06-08T18:18:42.018Z,6.20
2023-06-08T18:21:09.678Z,6.40
2023-06-08T18:23:36.685Z,6.40
2023-06-08T18:26:03.477Z,7.03
2023-06-08T18:28:30.302Z,6.57
2023-06-08T18:30:57.216Z,5.90
2023-06-08T18:33:24.013Z,6.57
2023-06-08T18:35:50.754Z,6.53
2023-06-08T18:38:17.618Z,6.67
2023-06-08T18:40:44.525Z,6.43
2023-06-08T18:43:11.306Z,6.60
2023-06-08T18:45:38.134Z,6.47
2023-06-08T18:48:05.464Z,6.73
2023-06-08T18:50:32.385Z,7.53
2023-06-08T18:52:59.148Z,6.97
2023-06-08T18:55:27.135Z,6.30
2023-06-08T18:57:55.009Z,6.17
2023-06-08T19:00:22.970Z,6.20
2023-06-08T19:02:49.990Z,6.37
2023-06-08T19:05:16.929Z,6.30
2023-06-08T19:07:43.769Z,6.17
2023-06-08T19:10:10.946Z,6.50
2023-06-08T19:12:37.961Z,6.50
2023-06-08T19:15:07.163Z,7.27
2023-06-08T19:17:33.998Z,6.80
2023-06-08T19:20:00.916Z,7.13
2023-06-08T19:22:27.867Z,6.70
2023-06-08T19:24:54.620Z,6.83
2023-06-08T19:27:21.470Z,7.00
2023-06-08T19:29:48.396Z,6.50
2023-06-08T19:32:15.493Z,7.20
2023-06-08T19:34:42.361Z,6.80
2023-06-08T19:37:09.170Z,7.60
2023-06-08T19:39:35.950Z,7.80
2023-06-08T19:42:04.423Z,7.20
2023-06-08T19:44:31.888Z,7.80
2023-06-08T19:46:59.130Z,6.57
2023-06-08T19:49:26.515Z,6.80
2023-06-08T19:51:54.260Z,6.77
2023-06-08T19:54:23.958Z,6.67
2023-06-08T19:56:51.734Z,6.20
2023-06-08T19:59:20.189Z,6.20
2023-06-08T20:01:49.946Z,6.00
2023-06-08T20:04:17.023Z,5.73
2023-06-08T20:06:50.974Z,6.27
2023-06-08T20:09:20.633Z,6.60
2023-06-08T20:11:49.126Z,6.70
2023-06-08T20:14:18.292Z,6.97
2023-06-08T20:16:45.746Z,6.83
2023-06-08T20:19:13.732Z,7.30
2023-06-08T20:21:42.520Z,6.37
2023-06-08T20:24:10.595Z,6.80
2023-06-08T20:26:42.625Z,6.40
2023-06-08T20:29:10.419Z,6.17
2023-06-08T20:31:41.534Z,6.47
2023-06-08T20:34:10.783Z,6.53
2023-06-08T20:36:38.719Z,6.60
2023-06-08T20:39:07.182Z,6.10
2023-06-08T20:41:34.561Z,5.93
2023-06-08T20:44:04.818Z,5.70
2023-06-08T20:46:34.297Z,6.33
2023-06-08T20:49:04.333Z,6.30
2023-06-08T20:51:31.958Z,6.00
2023-06-08T20:53:58.796Z,6.20
2023-06-08T20:56:26.832Z,5.80
2023-06-08T20:58:53.984Z,5.90
2023-06-08T21:01:20.838Z,6.27
2023-06-08T21:03:49.334Z,6.37
2023-06-08T21:06:16.296Z,6.40
2023-06-08T21:08:43.094Z,6.67
2023-06-08T21:11:09.934Z,6.80
2023-06-08T21:13:36.787Z,5.90
2023-06-08T21:16:03.922Z,5.80
2023-06-08T21:18:30.813Z,6.30
2023-06-08T21:20:57.603Z,6.10
2023-06-08T21:23:24.485Z,5.73
2023-06-08T21:25:51.303Z,6.20
2023-06-08T21:28:18.410Z,6.67
2023-06-08T21:30:45.491Z,6.03
2023-06-08T21:33:12.687Z,6.50
2023-06-08T21:35:39.458Z,6.97
2023-06-08T21:38:06.261Z,7.30
2023-06-08T21:40:33.066Z,6.50
2023-06-08T21:42:59.872Z,6.77
2023-06-08T21:45:26.748Z,6.37
2023-06-08T21:47:55.863Z,6.20
2023-06-08T21:50:24.192Z,6.33
2023-06-08T21:52:51.139Z,6.97
2023-06-08T21:55:18.066Z,7.00
2023-06-08T21:57:44.811Z,6.30
2023-06-08T22:00:12.988Z,6.70
2023-06-08T22:02:40.092Z,6.33
2023-06-08T22:05:07.753Z,6.37
2023-06-08T22:07:34.822Z,6.23
2023-06-08T22:10:02.042Z,6.47
2023-06-08T22:12:28.966Z,6.40
2023-06-08T22:14:56.946Z,6.77
2023-06-08T22:17:23.799Z,5.80
2023-06-08T22:20:02.437Z,6.63
2023-06-08T22:22:33.997Z,6.00
2023-06-08T22:25:00.948Z,6.73
2023-06-08T22:27:28.163Z,6.73
2023-06-08T22:29:54.930Z,6.60
2023-06-08T22:32:21.751Z,6.70
2023-06-08T22:34:48.550Z,6.90
2023-06-08T22:37:15.579Z,6.40
2023-06-08T22:39:42.605Z,6.43
2023-06-08T22:42:09.882Z,7.00
2023-06-08T22:44:36.698Z,6.50
2023-06-08T22:47:04.868Z,7.13
2023-06-08T22:49:33.712Z,6.80
2023-06-08T22:52:03.700Z,6.30
2023-06-08T22:54:31.188Z,7.33
2023-06-08T22:57:00.572Z,6.50
2023-06-08T22:59:29.912Z,7.10
2023-06-08T23:01:56.691Z,6.47
2023-06-08T23:04:23.554Z,6.67
2023-06-08T23:06:50.547Z,6.20
2023-06-08T23:09:17.698Z,6.00
2023-06-08T23:11:45.985Z,6.17
2023-06-08T23:14:13.306Z,6.03
2023-06-08T23:16:40.271Z,6.10
2023-06-08T23:19:07.790Z,6.40
2023-06-08T23:21:36.556Z,6.77
2023-06-08T23:24:03.943Z,6.73
2023-06-08T23:26:30.973Z,6.23
2023-06-08T23:29:01.483Z,6.07
2023-06-08T23:31:28.361Z,5.93
2023-06-08T23:33:55.354Z,5.70
2023-06-08T23:36:22.465Z,6.03
2023-06-08T23:38:49.267Z,5.80
2023-06-08T23:41:16.529Z,6.00
2023-06-08T23:43:43.356Z,6.20
2023-06-08T23:46:10.237Z,6.03
2023-06-08T23:48:38.040Z,5.37
2023-06-08T23:51:05.058Z,5.50
2023-06-08T23:53:32.395Z,6.30
2023-06-08T23:55:59.368Z,5.73
2023-06-08T23:58:26.185Z,5.90
